Time;durP1;ratioP1;P1;durP2;ratioP2;P2;SDS_P1;SDS_P2;PMS_P1;PMS_P2;Temp;Humidity;BMP_temperature;BMP_pressure;BME280_temperature;BME280_humidity;BME280_pressure;Samples;Min_cycle;Max_cycle;Signal;HPM_P1;HPM_P2
2022/04/02 00:00:39;;;;;;;;;;;;;;;1.95;58.57;99982.94;4931934;29;1284;-92
2022/04/02 00:03:05;;;;;;;;;;;;;;;2.02;58.57;99979.06;4945768;29;1898;-92
2022/04/02 00:05:31;;;;;;;;;;;;;;;1.99;58.32;99984.09;4935538;29;1266;-91
2022/04/02 00:07:56;;;;;;;;;;;;;;;1.94;58.62;99970.50;4943692;29;1479;-92
2022/04/02 00:10:22;;;;;;;;;;;;;;;1.95;58.76;99969.44;4938534;29;1266;-92
2022/04/02 00:12:47;;;;;;;;;;;;;;;1.93;58.58;99971.56;4938857;29;1265;-91
2022/04/02 00:15:13;;;;;;;;;;;;;;;1.94;59.53;99982.13;4955774;28;1210;-92
2022/04/02 00:17:38;;;;;;;;;;;;;;;1.96;59.38;99979.19;4938405;29;1476;-92
2022/04/02 00:20:04;;;;;;;;;;;;;;;2.02;58.78;99970.97;4938447;29;1597;-92
2022/04/02 00:22:30;;;;;;;;;;;;;;;1.96;58.92;99974.59;4922991;29;1895;-91
2022/04/02 00:24:55;;;;;;;;;;;;;;;1.95;57.80;99972.16;4938380;28;1471;-92
2022/04/02 00:27:21;;;;;;;;;;;;;;;2.04;58.80;99978.81;4938378;29;1102;-92
2022/04/02 00:29:46;;;;;;;;;;;;;;;1.91;56.99;99977.19;4938323;29;1496;-92
2022/04/02 00:32:12;;;;;;;;;;;;;;;1.85;57.94;99980.84;4955647;29;1592;-92
2022/04/02 00:34:38;;;;;;;;;;;;;;;1.82;57.75;99979.44;4938345;29;1216;-92
2022/04/02 00:37:03;;;;;;;;;;;;;;;1.73;59.09;99980.84;4922689;29;1432;-91
2022/04/02 00:39:30;;;;;;;;;;;;;;;1.73;59.41;99974.63;4944161;28;1664;-91
2022/04/02 00:41:55;;;;;;;;;;;;;;;1.80;58.51;99975.31;4957739;28;1335;-92
2022/04/02 00:44:21;;;;;;;;;;;;;;;1.86;59.50;99985.19;4957584;28;1972;-92
2022/04/02 00:46:47;;;;;;;;;;;;;;;1.87;59.05;99986.84;4941365;28;1620;-92
2022/04/02 00:49:13;;;;;;;;;;;;;;;1.79;59.24;99979.06;4938833;29;1318;-92
2022/04/02 00:51:42;;;;;;;;;;;;;;;1.80;59.33;99976.13;4941830;29;1294;-92
2022/04/02 00:54:18;;;;;;;;;;;;;;;1.84;58.67;99980.03;4941765;29;1368;-92
2022/04/02 00:56:43;;;;;;;;;;;;;;;1.75;60.24;99983.31;4942098;29;1289;-92
2022/04/02 00:59:09;;;;;;;;;;;;;;;1.82;59.99;99979.44;4941667;29;1498;-91
2022/04/02 01:01:37;;;;;;;;;;;;;;;1.84;59.64;99976.50;4941497;29;1313;-93
2022/04/02 01:04:03;;;;;;;;;;;;;;;1.71;60.95;99985.66;4941486;29;1961;-92
2022/04/02 01:06:29;;;;;;;;;;;;;;;1.77;60.77;99978.50;4941634;29;1198;-91
2022/04/02 01:08:54;;;;;;;;;;;;;;;1.58;60.13;99985.91;4941351;29;1212;-91
2022/04/02 01:11:20;;;;;;;;;;;;;;;1.56;60.29;99985.28;4941545;29;1199;-91
2022/04/02 01:14:10;;;;;;;;;;;;;;;1.63;61.14;99991.38;4941683;29;1173;-92
2022/04/02 01:16:35;;;;;;;;;;;;;;;1.74;61.76;99987.06;4957363;29;1522;-92
2022/04/02 01:19:03;;;;;;;;;;;;;;;1.77;61.41;99987.41;4941337;29;1232;-92
2022/04/02 01:21:29;;;;;;;;;;;;;;;1.76;61.32;99990.34;4941613;29;1280;-92
2022/04/02 01:23:58;;;;;;;;;;;;;;;1.78;61.24;99983.66;4941198;29;1954;-92
2022/04/02 01:26:24;;;;;;;;;;;;;;;1.79;61.80;99996.06;4941613;29;1439;-92
2022/04/02 01:28:53;;;;;;;;;;;;;;;1.73;61.76;99994.31;4941295;29;1338;-92
2022/04/02 01:31:19;;;;;;;;;;;;;;;1.73;61.17;99990.81;4941024;28;1274;-92
2022/04/02 01:33:44;;;;;;;;;;;;;;;1.72;61.34;99998.09;4941141;29;1194;-91
2022/04/02 01:36:09;;;;;;;;;;;;;;;1.64;61.69;99995.72;4941051;29;1206;-92
2022/04/02 01:38:35;;;;;;;;;;;;;;;1.63;62.74;100001.34;4941310;29;1230;-91
2022/04/02 01:41:00;;;;;;;;;;;;;;;1.67;61.79;99997.16;4958207;29;767;-92
2022/04/02 01:43:25;;;;;;;;;;;;;;;1.71;62.19;100003.69;4940849;29;1948;-92
2022/04/02 01:45:57;;;;;;;;;;;;;;;1.54;63.29;99998.19;4940883;29;1359;-92
2022/04/02 01:48:22;;;;;;;;;;;;;;;1.55;62.92;99991.75;4940591;29;1514;-92
2022/04/02 01:50:48;;;;;;;;;;;;;;;1.62;63.08;100000.53;4941028;29;1242;-92
2022/04/02 01:53:14;;;;;;;;;;;;;;;1.61;63.04;100004.31;4940849;29;1384;-92
2022/04/02 01:55:39;;;;;;;;;;;;;;;1.61;63.56;99996.22;4958016;28;1262;-92
2022/04/02 01:58:04;;;;;;;;;;;;;;;1.59;63.45;100006.41;4940728;29;1164;-92
2022/04/02 02:00:29;;;;;;;;;;;;;;;1.45;62.72;100011.19;4940625;29;1005;-92
2022/04/02 02:02:54;;;;;;;;;;;;;;;1.36;63.04;100001.81;4941133;29;1894;-92
2022/04/02 02:05:20;;;;;;;;;;;;;;;1.46;62.67;100007.44;4940528;29;1206;-92
2022/04/02 02:07:49;;;;;;;;;;;;;;;1.42;63.57;100008.16;4940561;29;1548;-94
2022/04/02 02:10:14;;;;;;;;;;;;;;;1.49;63.93;100001.59;4940392;29;1248;-92
2022/04/02 02:12:40;;;;;;;;;;;;;;;1.56;64.08;100008.75;4940392;29;1216;-92
2022/04/02 02:15:05;;;;;;;;;;;;;;;1.61;63.43;100007.00;4940327;28;1330;-92
2022/04/02 02:17:30;;;;;;;;;;;;;;;1.67;63.92;100019.56;4940193;29;1274;-91
2022/04/02 02:19:55;;;;;;;;;;;;;;;1.58;63.79;100025.53;4940336;29;1294;-93
2022/04/02 02:22:20;;;;;;;;;;;;;;;1.58;64.19;100022.84;4940324;29;981;-92
2022/04/02 02:24:46;;;;;;;;;;;;;;;1.61;63.66;100017.81;4944832;29;1890;-92
2022/04/02 02:27:11;;;;;;;;;;;;;;;1.55;62.21;100026.81;4942279;29;1767;-91
2022/04/02 02:29:36;;;;;;;;;;;;;;;1.48;63.16;100026.91;4940168;29;1289;-92
2022/04/02 02:32:01;;;;;;;;;;;;;;;1.52;63.05;100024.59;4940339;29;1033;-91
2022/04/02 02:37:10;;;;;;;;;;;;;;;1.48;62.65;100023.41;4957382;28;1521;-91
2022/04/02 02:39:35;;;;;;;;;;;;;;;1.45;62.01;100029.25;4939795;29;1191;-92
2022/04/02 02:42:01;;;;;;;;;;;;;;;1.48;62.86;100024.22;4940466;29;1202;-92
2022/04/02 02:44:26;;;;;;;;;;;;;;;1.56;63.19;100028.44;4940104;29;1894;-91
2022/04/02 02:46:51;;;;;;;;;;;;;;;1.64;62.81;100028.09;4939699;29;1676;-92
2022/04/02 02:49:16;;;;;;;;;;;;;;;1.46;64.57;100031.72;4939685;29;1199;-91
2022/04/02 02:51:42;;;;;;;;;;;;;;;1.52;63.43;100036.22;4947915;28;1491;-92
2022/04/02 02:54:07;;;;;;;;;;;;;;;1.52;62.04;100035.38;4956033;28;1674;-91
2022/04/02 02:56:32;;;;;;;;;;;;;;;1.44;61.54;100027.63;4939257;29;1210;-92
2022/04/02 02:58:57;;;;;;;;;;;;;;;1.37;61.85;100037.69;4939401;29;1320;-91
2022/04/02 03:01:22;;;;;;;;;;;;;;;1.32;62.85;100034.88;4939677;29;1625;-93
2022/04/02 03:03:48;;;;;;;;;;;;;;;1.27;62.81;100030.19;4939189;29;1964;-92
2022/04/02 03:06:13;;;;;;;;;;;;;;;1.39;62.53;100043.66;4939634;29;1372;-91
2022/04/02 03:08:38;;;;;;;;;;;;;;;1.26;61.58;100041.19;4941091;29;1644;-91
2022/04/02 03:11:03;;;;;;;;;;;;;;;1.29;63.25;100038.84;4948652;28;1508;-92
2022/04/02 03:13:29;;;;;;;;;;;;;;;1.38;62.65;100042.03;4958007;28;1204;-92
2022/04/02 03:15:55;;;;;;;;;;;;;;;1.43;62.25;100034.91;4958570;28;1280;-92
2022/04/02 03:18:21;;;;;;;;;;;;;;;1.35;62.42;100048.72;4958924;28;1517;-91
2022/04/02 03:20:46;;;;;;;;;;;;;;;1.39;62.34;100051.75;4958747;28;1158;-92
2022/04/02 03:23:11;;;;;;;;;;;;;;;1.34;62.74;100057.03;4958775;28;1963;-92
2022/04/02 03:28:39;;;;;;;;;;;;;;;1.24;63.42;100062.16;4975607;28;617;-91
2022/04/02 03:31:04;;;;;;;;;;;;;;;1.28;62.93;100061.47;4958249;28;1181;-92
2022/04/02 03:33:29;;;;;;;;;;;;;;;1.37;63.27;100062.78;4953407;29;1076;-92
2022/04/02 03:35:54;;;;;;;;;;;;;;;1.45;63.28;100064.31;4938782;29;1517;-91
2022/04/02 03:38:20;;;;;;;;;;;;;;;1.25;62.94;100063.81;4939181;29;1037;-92
2022/04/02 03:40:45;;;;;;;;;;;;;;;1.29;63.92;100070.38;4938835;29;1154;-92
2022/04/02 03:43:10;;;;;;;;;;;;;;;1.31;62.64;100065.56;4938769;29;1890;-93
2022/04/02 03:45:35;;;;;;;;;;;;;;;1.17;63.23;100067.66;4975340;22;3608;-92
2022/04/02 03:48:01;;;;;;;;;;;;;;;0.95;63.21;100063.81;5012606;28;1611;-91
2022/04/02 03:50:26;;;;;;;;;;;;;;;0.98;64.26;100076.84;5010185;28;1563;-92
2022/04/02 03:52:53;;;;;;;;;;;;;;;1.05;64.37;100074.88;5024126;28;1538;-92
2022/04/02 03:55:18;;;;;;;;;;;;;;;1.03;63.97;100083.19;5001880;28;1406;-91
2022/04/02 03:57:47;;;;;;;;;;;;;;;1.09;64.11;100087.66;4991534;28;1568;-91
2022/04/02 04:00:13;;;;;;;;;;;;;;;1.18;64.41;100084.66;4994887;28;1543;-90
2022/04/02 04:02:38;;;;;;;;;;;;;;;1.18;64.72;100082.78;4987849;28;1965;-91
2022/04/02 04:05:06;;;;;;;;;;;;;;;1.27;64.76;100084.09;4995951;28;1311;-92
2022/04/02 04:07:31;;;;;;;;;;;;;;;1.13;64.86;100088.84;4983157;28;1751;-91
2022/04/02 04:09:56;;;;;;;;;;;;;;;1.01;64.62;100093.38;4990372;28;1428;-92
2022/04/02 04:12:21;;;;;;;;;;;;;;;1.00;64.63;100093.59;5009939;28;1620;-91
2022/04/02 04:14:46;;;;;;;;;;;;;;;0.99;64.93;100094.66;5002261;28;1293;-90
2022/04/02 04:17:11;;;;;;;;;;;;;;;1.02;64.92;100096.91;4991755;28;1723;-90
2022/04/02 04:19:37;;;;;;;;;;;;;;;1.05;65.44;100096.44;4990459;28;1600;-91
2022/04/02 04:22:03;;;;;;;;;;;;;;;1.00;65.52;100096.31;4995060;28;1397;-92
2022/04/02 04:24:29;;;;;;;;;;;;;;;0.93;65.52;100107.19;5003437;28;1953;-90
2022/04/02 04:26:55;;;;;;;;;;;;;;;1.02;66.29;100099.59;5002791;28;1472;-91
2022/04/02 04:29:20;;;;;;;;;;;;;;;1.00;65.00;100105.22;5014918;28;1571;-92
2022/04/02 04:31:45;;;;;;;;;;;;;;;1.06;65.33;100104.28;5004724;28;1465;-89
2022/04/02 04:34:10;;;;;;;;;;;;;;;0.98;65.78;100112.69;4987964;28;1405;-91
2022/04/02 04:36:35;;;;;;;;;;;;;;;0.91;65.28;100120.03;4995986;28;1347;-91
2022/04/02 04:39:01;;;;;;;;;;;;;;;0.95;65.21;100120.41;5002270;28;1535;-91
2022/04/02 04:41:26;;;;;;;;;;;;;;;1.01;66.11;100123.03;4988047;28;1418;-91
2022/04/02 04:43:51;;;;;;;;;;;;;;;1.02;66.04;100130.03;4988260;28;1890;-92
2022/04/02 04:46:17;;;;;;;;;;;;;;;0.89;65.68;100132.91;4998947;28;1374;-91
2022/04/02 04:48:43;;;;;;;;;;;;;;;0.65;66.41;100128.44;5016730;28;1373;-90
2022/04/02 04:51:09;;;;;;;;;;;;;;;0.78;66.95;100125.56;5014163;28;1405;-90
2022/04/02 04:53:34;;;;;;;;;;;;;;;0.64;66.75;100138.38;5016452;28;1349;-91
2022/04/02 04:55:59;;;;;;;;;;;;;;;0.55;66.68;100139.72;4999038;28;1422;-89
2022/04/02 04:58:25;;;;;;;;;;;;;;;0.69;67.24;100145.78;4982564;28;1390;-91
2022/04/02 05:00:50;;;;;;;;;;;;;;;0.84;66.64;100140.88;4979862;28;1405;-90
2022/04/02 05:03:15;;;;;;;;;;;;;;;0.85;64.99;100145.19;4997590;28;1957;-91
2022/04/02 05:05:40;;;;;;;;;;;;;;;0.86;65.24;100148.69;5016413;28;1280;-91
2022/04/02 05:08:06;;;;;;;;;;;;;;;0.78;64.78;100149.81;4995698;28;1401;-92
2022/04/02 05:10:32;;;;;;;;;;;;;;;0.65;65.27;100155.38;4981910;28;1432;-91
2022/04/02 05:12:57;;;;;;;;;;;;;;;0.65;65.41;100161.59;4981700;28;1394;-93
2022/04/02 05:15:22;;;;;;;;;;;;;;;0.67;66.15;100161.38;4998430;28;1515;-89
2022/04/02 05:17:47;;;;;;;;;;;;;;;0.81;66.03;100170.13;4999004;28;1708;-92
2022/04/02 05:20:14;;;;;;;;;;;;;;;0.86;66.23;100172.94;5006184;28;1513;-90
2022/04/02 05:22:39;;;;;;;;;;;;;;;0.99;65.40;100179.00;5015733;28;1890;-91
2022/04/02 05:25:05;;;;;;;;;;;;;;;1.08;65.51;100180.34;5015220;28;1387;-91
2022/04/02 05:27:30;;;;;;;;;;;;;;;1.03;64.19;100190.97;4996127;28;1619;-91
2022/04/02 05:29:55;;;;;;;;;;;;;;;0.96;64.31;100192.94;4998886;28;1197;-91
2022/04/02 05:32:20;;;;;;;;;;;;;;;1.00;63.72;100190.63;4998340;28;1520;-90
2022/04/02 05:34:46;;;;;;;;;;;;;;;1.07;63.55;100185.97;4997947;28;1642;-92
2022/04/02 05:37:11;;;;;;;;;;;;;;;1.05;64.11;100188.88;4988424;28;1303;-91
2022/04/02 05:39:36;;;;;;;;;;;;;;;1.04;64.07;100192.63;4994695;28;1280;-92
2022/04/02 05:42:02;;;;;;;;;;;;;;;1.12;64.01;100199.56;4998626;28;1334;-91
2022/04/02 05:44:27;;;;;;;;;;;;;;;1.24;64.23;100202.34;4995136;28;1882;-91
2022/04/02 05:46:52;;;;;;;;;;;;;;;1.14;64.08;100201.00;4990101;28;1591;-91
2022/04/02 05:49:17;;;;;;;;;;;;;;;0.86;63.89;100200.72;4984339;28;1357;-92
2022/04/02 05:51:43;;;;;;;;;;;;;;;1.05;64.48;100196.16;4998550;28;1220;-92
2022/04/02 05:54:08;;;;;;;;;;;;;;;1.24;64.19;100207.75;4993799;28;1774;-92
2022/04/02 05:56:34;;;;;;;;;;;;;;;1.28;63.79;100204.34;4980432;28;1611;-92
2022/04/02 05:58:59;;;;;;;;;;;;;;;1.27;63.72;100207.28;5006020;28;1409;-92
2022/04/02 06:01:24;;;;;;;;;;;;;;;1.34;63.93;100210.72;4997943;28;1390;-92
2022/04/02 06:03:49;;;;;;;;;;;;;;;1.43;63.80;100206.66;4993736;28;1898;-92
2022/04/02 06:06:15;;;;;;;;;;;;;;;1.43;63.55;100217.44;4997731;28;1715;-92
2022/04/02 06:08:40;;;;;;;;;;;;;;;1.37;63.41;100221.84;4997028;28;1374;-92
2022/04/02 06:11:08;;;;;;;;;;;;;;;1.30;63.44;100228.38;4987887;28;1278;-92
2022/04/02 06:13:34;;;;;;;;;;;;;;;1.42;63.56;100232.81;4983288;28;1492;-92
2022/04/02 06:15:59;;;;;;;;;;;;;;;1.41;63.52;100220.38;5000223;28;1649;-92
2022/04/02 06:18:25;;;;;;;;;;;;;;;1.49;64.38;100230.84;4990244;28;1745;-92
2022/04/02 06:20:50;;;;;;;;;;;;;;;1.60;63.02;100231.94;4981643;28;1626;-92
2022/04/02 06:23:16;;;;;;;;;;;;;;;1.59;62.87;100237.56;4992030;28;1874;-92
2022/04/02 06:25:42;;;;;;;;;;;;;;;1.66;62.89;100241.81;4992283;28;1671;-92
2022/04/02 06:28:07;;;;;;;;;;;;;;;1.73;63.20;100257.91;4980963;28;1549;-91
2022/04/02 06:30:32;;;;;;;;;;;;;;;1.59;61.93;100246.47;4997364;28;1742;-90
2022/04/02 06:32:58;;;;;;;;;;;;;;;1.57;62.67;100256.66;4997007;28;1493;-91
2022/04/02 06:35:24;;;;;;;;;;;;;;;1.41;62.76;100257.31;4996428;28;1650;-91
2022/04/02 06:37:50;;;;;;;;;;;;;;;1.52;62.98;100264.63;4978376;28;1702;-92
2022/04/02 06:40:16;;;;;;;;;;;;;;;1.52;63.24;100267.34;4988632;28;1465;-88
2022/04/02 06:42:41;;;;;;;;;;;;;;;1.58;61.88;100279.06;4997323;28;1965;-88
2022/04/02 06:45:07;;;;;;;;;;;;;;;1.49;62.37;100275.88;4982883;28;1350;-88
2022/04/02 06:47:33;;;;;;;;;;;;;;;1.41;63.06;100277.00;4991866;28;1623;-88
2022/04/02 06:50:01;;;;;;;;;;;;;;;1.51;63.42;100288.09;4999775;28;1180;-87
2022/04/02 06:52:26;;;;;;;;;;;;;;;1.51;62.30;100287.25;5013694;28;1397;-88
2022/04/02 06:54:51;;;;;;;;;;;;;;;1.63;62.95;100290.00;4997386;28;1324;-88
2022/04/02 06:57:18;;;;;;;;;;;;;;;1.52;62.30;100280.81;4997804;28;1623;-88
2022/04/02 06:59:43;;;;;;;;;;;;;;;1.58;63.02;100279.91;5015465;28;1200;-88
2022/04/02 07:02:08;;;;;;;;;;;;;;;1.72;63.57;100286.75;4993583;28;1414;-89
2022/04/02 07:04:33;;;;;;;;;;;;;;;1.78;61.94;100288.56;4977788;28;1954;-89
2022/04/02 07:06:59;;;;;;;;;;;;;;;1.88;62.76;100299.63;4995496;28;1201;-88
2022/04/02 07:09:24;;;;;;;;;;;;;;;2.02;62.71;100296.75;5010511;28;1213;-88
2022/04/02 07:11:49;;;;;;;;;;;;;;;2.12;62.47;100299.72;5011050;28;1455;-88
2022/04/02 07:14:14;;;;;;;;;;;;;;;2.07;61.48;100303.09;4977548;28;1283;-88
2022/04/02 07:16:40;;;;;;;;;;;;;;;2.07;61.37;100305.78;4978255;28;1565;-88
2022/04/02 07:19:05;;;;;;;;;;;;;;;2.14;60.92;100300.28;4996014;28;1255;-87
2022/04/02 07:21:31;;;;;;;;;;;;;;;2.21;62.22;100301.03;5008518;28;1331;-89
2022/04/02 07:23:56;;;;;;;;;;;;;;;2.32;61.37;100310.22;4997696;28;1894;-89
2022/04/02 07:26:22;;;;;;;;;;;;;;;2.28;60.77;100310.69;4995616;28;1669;-88
2022/04/02 07:28:47;;;;;;;;;;;;;;;2.27;61.61;100319.84;4985147;28;1347;-89
2022/04/02 07:31:13;;;;;;;;;;;;;;;2.40;61.30;100323.38;4985968;28;1585;-88
2022/04/02 07:33:41;;;;;;;;;;;;;;;2.38;60.85;100318.22;4989018;28;1557;-88
2022/04/02 07:36:12;;;;;;;;;;;;;;;2.37;61.11;100330.09;5005604;28;1641;-88
2022/04/02 07:38:41;;;;;;;;;;;;;;;2.55;60.92;100329.19;4978651;28;1509;-88
2022/04/02 07:41:27;;;;;;;;;;;;;;;2.59;61.27;100333.88;4980727;28;1214;-89
2022/04/02 07:44:01;;;;;;;;;;;;;;;2.62;61.19;100338.84;4979336;28;1890;-89
2022/04/02 07:46:28;;;;;;;;;;;;;;;2.62;59.86;100336.13;4989352;28;1383;-90
2022/04/02 07:48:55;;;;;;;;;;;;;;;2.71;60.30;100342.03;4985706;28;1420;-88
2022/04/02 07:51:24;;;;;;;;;;;;;;;2.70;60.16;100337.66;4991645;28;1311;-89
2022/04/02 07:53:51;;;;;;;;;;;;;;;2.64;60.16;100339.41;4986639;28;1647;-90
2022/04/02 07:56:24;;;;;;;;;;;;;;;2.76;60.51;100350.25;4996318;28;1286;-89
2022/04/02 07:58:52;;;;;;;;;;;;;;;2.86;61.09;100355.06;4992183;28;1668;-91
2022/04/02 08:01:18;;;;;;;;;;;;;;;2.83;59.47;100350.94;4977045;28;1260;-90
2022/04/02 08:03:44;;;;;;;;;;;;;;;2.94;60.49;100360.13;4992516;28;1898;-90
2022/04/02 08:06:09;;;;;;;;;;;;;;;2.88;58.14;100356.50;4977107;28;1380;-90
2022/04/02 08:08:36;;;;;;;;;;;;;;;2.51;59.69;100355.84;4976564;28;1592;-91
2022/04/02 08:11:02;;;;;;;;;;;;;;;2.75;61.04;100358.56;4988028;28;1368;-89
2022/04/02 08:13:29;;;;;;;;;;;;;;;2.95;60.55;100359.91;4981977;28;1311;-91
2022/04/02 08:15:54;;;;;;;;;;;;;;;3.16;59.92;100363.06;4977291;28;1359;-90
2022/04/02 08:18:22;;;;;;;;;;;;;;;3.23;59.22;100353.78;4994719;28;1217;-91
2022/04/02 08:20:49;;;;;;;;;;;;;;;3.15;59.82;100356.84;4976480;28;1433;-90
2022/04/02 08:23:14;;;;;;;;;;;;;;;3.09;59.03;100365.91;4976331;28;1939;-90
2022/04/02 08:25:46;;;;;;;;;;;;;;;2.71;58.08;100366.34;4991770;28;1418;-90
2022/04/02 08:28:13;;;;;;;;;;;;;;;2.58;59.11;100359.25;4995859;28;1292;-89
2022/04/02 08:30:42;;;;;;;;;;;;;;;2.87;59.72;100360.25;4991845;28;1642;-90
2022/04/02 08:33:25;;;;;;;;;;;;;;;3.23;60.44;100370.00;5001938;28;1468;-89
2022/04/02 08:35:57;;;;;;;;;;;;;;;3.34;59.32;100365.66;4995025;28;1512;-89
2022/04/02 08:38:22;;;;;;;;;;;;;;;3.22;59.56;100373.78;4995925;28;1224;-90
2022/04/02 08:41:06;;;;;;;;;;;;;;;3.16;57.85;100372.00;4996101;28;969;-89
2022/04/02 08:43:32;;;;;;;;;;;;;;;3.43;59.40;100375.06;4981897;28;1890;-90
2022/04/02 08:46:01;;;;;;;;;;;;;;;3.61;58.97;100372.22;4987894;28;1421;-90
2022/04/02 08:48:28;;;;;;;;;;;;;;;3.55;59.14;100383.19;4976375;28;1374;-90
2022/04/02 08:51:09;;;;;;;;;;;;;;;3.63;58.08;100378.22;4976476;28;1304;-90
2022/04/02 08:53:47;;;;;;;;;;;;;;;3.79;57.86;100391.00;4992379;28;1311;-90
2022/04/02 08:56:17;;;;;;;;;;;;;;;3.75;57.46;100391.72;4980454;28;1469;-90
2022/04/02 08:58:58;;;;;;;;;;;;;;;3.84;57.79;100390.28;4982300;28;1433;-90
2022/04/02 09:01:25;;;;;;;;;;;;;;;3.79;57.96;100396.44;4990099;28;1432;-90
2022/04/02 09:04:08;;;;;;;;;;;;;;;3.92;57.62;100400.75;4993563;28;1902;-89
2022/04/02 09:06:43;;;;;;;;;;;;;;;3.17;58.92;100389.06;4983263;28;1444;-90
2022/04/02 09:09:15;;;;;;;;;;;;;;;3.52;59.74;100389.03;4993851;28;1642;-91
2022/04/02 09:12:08;;;;;;;;;;;;;;;3.69;58.06;100403.50;4996682;28;1492;-91
2022/04/02 09:14:52;;;;;;;;;;;;;;;3.85;57.67;100396.53;4999516;28;1284;-91
2022/04/02 09:17:35;;;;;;;;;;;;;;;3.89;56.94;100400.41;4991176;28;1639;-89
2022/04/02 09:20:12;;;;;;;;;;;;;;;3.88;57.04;100402.28;4980130;28;1317;-91
2022/04/02 09:22:56;;;;;;;;;;;;;;;3.98;57.89;100405.22;4988151;28;1544;-91
2022/04/02 09:25:40;;;;;;;;;;;;;;;4.01;58.92;100407.44;5008752;28;1405;-89
2022/04/02 09:28:44;;;;;;;;;;;;;;;3.45;56.69;100408.13;5003180;28;1408;-90
2022/04/02 09:31:27;;;;;;;;;;;;;;;3.59;59.07;100401.38;4959329;28;1233;-89
2022/04/02 09:34:07;;;;;;;;;;;;;;;3.79;58.67;100407.25;4975083;28;1193;-90
2022/04/02 09:36:36;;;;;;;;;;;;;;;3.75;59.08;100416.06;4984327;28;1699;-91
2022/04/02 09:39:02;;;;;;;;;;;;;;;3.76;57.74;100415.03;4999108;28;1336;-90
2022/04/02 09:41:45;;;;;;;;;;;;;;;3.39;57.33;100406.38;5011122;28;1273;-91
2022/04/02 09:44:20;;;;;;;;;;;;;;;3.67;57.59;100400.19;5000377;28;1894;-91
2022/04/02 09:46:57;;;;;;;;;;;;;;;3.91;57.75;100411.84;5014697;22;2056;-88
2022/04/02 09:49:26;;;;;;;;;;;;;;;3.41;55.56;100406.94;4979867;28;1221;-88
2022/04/02 09:51:56;;;;;;;;;;;;;;;3.56;56.94;100414.59;4979665;28;1616;-90
2022/04/02 09:54:48;;;;;;;;;;;;;;;3.75;57.28;100410.66;4979538;28;1178;-90
2022/04/02 09:57:36;;;;;;;;;;;;;;;3.92;55.83;100414.28;4976502;28;1517;-87
2022/04/02 10:00:04;;;;;;;;;;;;;;;3.88;57.09;100418.53;4950029;28;1313;-90
2022/04/02 10:02:48;;;;;;;;;;;;;;;3.88;56.52;100417.72;4981955;28;1500;-89
2022/04/02 10:05:16;;;;;;;;;;;;;;;3.92;57.27;100417.00;4996571;28;1496;-86
2022/04/02 10:08:00;;;;;;;;;;;;;;;3.85;55.76;100412.78;4978488;28;1385;-89
2022/04/02 10:10:26;;;;;;;;;;;;;;;3.78;56.92;100427.25;4996576;28;1508;-88
2022/04/02 10:12:53;;;;;;;;;;;;;;;4.02;57.81;100417.19;4977359;28;1465;-88
2022/04/02 10:15:19;;;;;;;;;;;;;;;4.16;56.82;100423.19;4960224;28;1197;-89
2022/04/02 10:17:50;;;;;;;;;;;;;;;4.25;57.50;100419.03;4992984;28;1579;-89
2022/04/02 10:20:18;;;;;;;;;;;;;;;4.14;57.23;100425.31;4979341;28;1623;-88
2022/04/02 10:22:45;;;;;;;;;;;;;;;4.01;56.44;100430.97;4979184;28;1252;-89
2022/04/02 10:25:11;;;;;;;;;;;;;;;4.03;57.23;100429.69;4996435;28;1961;-89
2022/04/02 10:27:37;;;;;;;;;;;;;;;4.11;54.70;100420.34;4979537;28;1233;-89
2022/04/02 10:30:09;;;;;;;;;;;;;;;4.21;55.42;100422.47;4972245;28;1573;-90
2022/04/02 10:32:53;;;;;;;;;;;;;;;4.24;56.40;100420.09;4976554;28;1341;-90
2022/04/02 10:35:20;;;;;;;;;;;;;;;4.49;56.52;100417.88;4979388;28;1110;-90
2022/04/02 10:38:04;;;;;;;;;;;;;;;4.43;56.70;100426.13;4978488;28;1627;-90
2022/04/02 10:40:30;;;;;;;;;;;;;;;4.30;55.26;100418.31;4978186;28;1408;-90
2022/04/02 10:43:02;;;;;;;;;;;;;;;4.48;56.42;100413.53;4978569;28;1898;-90
2022/04/02 10:45:28;;;;;;;;;;;;;;;4.53;55.34;100407.34;4978382;28;1477;-90
2022/04/02 10:48:05;;;;;;;;;;;;;;;4.37;55.91;100414.38;4995621;28;1438;-91
2022/04/02 10:50:31;;;;;;;;;;;;;;;4.07;55.44;100409.19;4967846;28;1446;-89
2022/04/02 10:53:00;;;;;;;;;;;;;;;4.21;56.90;100425.16;4978994;28;1265;-90
2022/04/02 10:55:26;;;;;;;;;;;;;;;4.15;56.28;100421.53;4977169;28;1335;-90
2022/04/02 10:57:51;;;;;;;;;;;;;;;4.19;55.13;100409.16;4959017;28;1223;-89
2022/04/02 11:00:17;;;;;;;;;;;;;;;4.63;55.75;100418.38;4971154;28;1285;-89
2022/04/02 11:02:50;;;;;;;;;;;;;;;4.85;55.34;100416.59;4978400;28;1205;-90
2022/04/02 11:05:17;;;;;;;;;;;;;;;4.82;53.34;100411.69;4976869;28;1355;-90
2022/04/02 11:07:46;;;;;;;;;;;;;;;4.69;54.18;100405.75;4970945;28;1429;-89
2022/04/02 11:10:13;;;;;;;;;;;;;;;4.56;53.61;100417.72;4977768;28;1552;-89
2022/04/02 11:12:41;;;;;;;;;;;;;;;4.51;53.98;100414.91;4978182;28;1189;-89
2022/04/02 11:15:13;;;;;;;;;;;;;;;4.69;54.83;100398.44;4977625;28;1521;-90
2022/04/02 11:17:41;;;;;;;;;;;;;;;4.62;54.76;100419.44;4978526;28;1273;-89
2022/04/02 11:20:14;;;;;;;;;;;;;;;4.50;51.58;100405.16;4979538;28;1323;-89
2022/04/02 11:22:42;;;;;;;;;;;;;;;4.71;53.70;100412.56;4978771;28;1327;-89
2022/04/02 11:25:11;;;;;;;;;;;;;;;5.00;53.01;100404.38;4977773;28;1895;-90
2022/04/02 11:27:38;;;;;;;;;;;;;;;4.97;52.23;100405.69;4978135;28;1303;-88
2022/04/02 11:30:05;;;;;;;;;;;;;;;4.91;52.61;100414.81;4978175;28;1300;-89
2022/04/02 11:32:36;;;;;;;;;;;;;;;4.78;52.19;100410.53;4977492;28;1166;-89
2022/04/02 11:35:06;;;;;;;;;;;;;;;4.87;53.02;100408.22;4977941;28;1251;-89
2022/04/02 11:37:33;;;;;;;;;;;;;;;4.80;53.09;100407.56;4977754;28;1244;-89
2022/04/02 11:40:02;;;;;;;;;;;;;;;4.61;52.19;100415.09;4977615;28;1366;-89
2022/04/02 11:42:32;;;;;;;;;;;;;;;4.52;53.34;100416.56;4995333;28;873;-88
2022/04/02 11:44:57;;;;;;;;;;;;;;;4.38;54.25;100426.03;4977607;28;1894;-89
2022/04/02 11:47:26;;;;;;;;;;;;;;;4.37;53.24;100430.63;4977547;28;1352;-90
2022/04/02 11:49:53;;;;;;;;;;;;;;;4.32;52.27;100424.31;4975101;28;1283;-89
2022/04/02 11:52:18;;;;;;;;;;;;;;;4.20;51.47;100429.75;4977593;28;1300;-90
2022/04/02 11:54:50;;;;;;;;;;;;;;;4.25;51.92;100429.88;4962794;28;1308;-88
2022/04/02 11:57:17;;;;;;;;;;;;;;;4.41;52.07;100439.13;4977740;28;1318;-89
2022/04/02 11:59:50;;;;;;;;;;;;;;;4.28;52.08;100429.38;4977627;28;1365;-91
2022/04/02 12:02:34;;;;;;;;;;;;;;;4.06;52.29;100440.06;4974780;28;1296;-88
2022/04/02 12:04:59;;;;;;;;;;;;;;;3.88;53.32;100442.91;4974834;28;1894;-88
2022/04/02 12:07:25;;;;;;;;;;;;;;;3.73;53.51;100438.00;4974945;28;1194;-90
2022/04/02 12:09:50;;;;;;;;;;;;;;;3.69;54.26;100438.69;4958867;28;1293;-88
2022/04/02 12:12:24;;;;;;;;;;;;;;;3.90;54.56;100439.97;4974706;28;1229;-89
2022/04/02 12:14:50;;;;;;;;;;;;;;;4.04;53.82;100428.63;4974420;28;1198;-89
2022/04/02 12:17:15;;;;;;;;;;;;;;;4.22;54.09;100433.06;4981254;28;1344;-89
2022/04/02 12:19:55;;;;;;;;;;;;;;;4.29;52.18;100430.19;4977771;28;1375;-89
2022/04/02 12:22:31;;;;;;;;;;;;;;;4.38;50.65;100428.75;4977847;28;1351;-89
2022/04/02 12:24:58;;;;;;;;;;;;;;;4.28;50.74;100432.09;4977426;28;1894;-90
2022/04/02 12:27:24;;;;;;;;;;;;;;;4.40;50.95;100434.75;4976942;28;1276;-89
2022/04/02 12:29:53;;;;;;;;;;;;;;;4.52;50.49;100438.22;4977433;28;1237;-88
2022/04/02 12:32:28;;;;;;;;;;;;;;;4.59;50.79;100443.53;4995528;28;1035;-88
2022/04/02 12:35:01;;;;;;;;;;;;;;;4.62;48.98;100438.44;4977895;28;1212;-89
2022/04/02 12:37:28;;;;;;;;;;;;;;;4.86;50.44;100431.00;4977623;28;1245;-89
2022/04/02 12:39:53;;;;;;;;;;;;;;;5.11;50.41;100433.31;4977717;28;1315;-88
2022/04/02 12:42:38;;;;;;;;;;;;;;;4.96;49.25;100423.03;4977191;28;1291;-88
2022/04/02 12:45:12;;;;;;;;;;;;;;;4.72;49.53;100441.34;4975451;28;1898;-89
2022/04/02 12:47:37;;;;;;;;;;;;;;;4.51;49.14;100439.28;4986691;28;1248;-89
2022/04/02 12:50:13;;;;;;;;;;;;;;;4.44;50.17;100441.34;4980076;28;1464;-89
2022/04/02 12:52:50;;;;;;;;;;;;;;;4.50;50.92;100445.81;4998423;28;930;-88
2022/04/02 12:55:23;;;;;;;;;;;;;;;4.59;50.98;100444.34;4980752;28;1604;-89
2022/04/02 12:58:15;;;;;;;;;;;;;;;4.70;49.04;100443.47;4971067;28;1356;-89
2022/04/02 13:00:44;;;;;;;;;;;;;;;4.88;49.70;100437.81;4959348;28;1270;-87
2022/04/02 13:03:31;;;;;;;;;;;;;;;4.95;49.33;100437.66;4978612;28;1965;-88
2022/04/02 13:06:01;;;;;;;;;;;;;;;5.65;49.62;100434.44;4980410;28;1352;-88
2022/04/02 13:08:27;;;;;;;;;;;;;;;6.12;48.17;100442.19;4977573;28;1233;-88